Orlando, FL (32801)

2:14 AM EDT on July 01, 2015 (GMT -0400)
Lake Como | | Change Station
CLOSE
Current Station
Personal Weather Station
Location: Orlando, FL
Elevation: 154 ft
Nearby Weather Stations

Elev 154 ft 28.54 °N, 81.35 °W | Updated 7 minutes ago

Clear
Clear
79.3 °F
Feels Like 83 °F
N
0.0
Wind Variable Wind from SSW

Today
High -- | Low -- °F
--% Chance of Precip.
Yesterday
High -- | Low -- °F
Precip. -- in
6:31 AM 8:27 PM
Waxing Gibbous, 99% visible
Pressure 30.12 in
Visibility 10.0 miles
Clouds Clear
Heat Index 83 °F
Dew Point 74 °F
Humidity 83%
Rainfall 0.00 in
Snow Depth Not available.
UV 0 out of 12
Pollen .90 out of 12
Air Quality Not available.
Flu Activity Not available.
METAR KORL 010553Z AUTO 16005KT 10SM CLR 27/24 A3011 RMK AO2 SLP198 T02720239 10322 20272 55007

More Conditions Fewer Conditions

Pressure 30.12 in
Visibility 10.0 miles
Clouds Clear
Heat Index 83 °F
Dew Point 74 °F
Humidity 83%
Rainfall 0.00 in
Snow Depth Not available.
UV 0 out of 12
Pollen .90 out of 12
Air Quality Not available.
Flu Activity Not available.
METAR KORL 010553Z AUTO 16005KT 10SM CLR 27/24 A3011 RMK AO2 SLP198 T02720239 10322 20272 55007

More Conditions Fewer Conditions

Nowcast | as of 1:29 am EDT on July 1, 2015

Areas of light to moderate rain with isolated embedded thunderstorms will occur south of Vero Beach and around the northeast shore of Lake Okeechobee through early morning. Movement will be east around 10 mph as they gradually weaken and dissipate. Additional details...including graphics are available online at: http://www.Srh.NOAA.Gov/mlb/blog.Php

×

10-Day Weather Forecast

×

Almanac

Astronomy

Jul. 01, 2015 Rise Set
Actual Time
Civil Twilight
Nautical Twilight
Astronomical Twilight
Moon
Length of Visible Light
Length of Day
Tomorrow will be .
, % of the Moon is Illuminated

Today's Extremes

State Highs State Lows

Community

WunderPhotos

Upload Photos

1,834,156 photos uploaded!

WunderBlogs® & News

Nearby

Air Quality

  Air Quality AQ Index Pollutant
Not available.

Snow Depth

Station Depth Elevation

Earthquake Activity

City Distance Mag. Time & Date
Minimum magnitude displayed is 2.5.

Coastal Water Temperatures

Place Temperature

Stations

Nearby Weather Stations

Station Location Temp. Windchill Dew Point Humidity Wind Precip. Elev Updated Type